Flight Track Log - Related Links

Times and Time Zones

All times are in EDT time to prevent confusion due to time zone crossing. See the RPA3228 flight status page for this flight to view local times or setup timezone preferences in your user account.

Time Position Orientation Groundspeed Altitude Reporting Facility
EDT Latitude Longitude Course Direction KTS MPH feet Rate Location/Type
Wed 10:31:02 AM 38.8667 -77.0500 339° North 152 175 1,600  Level Potomac TRACON
Wed 10:32:02 AM 38.9167 -77.1000 322° Northwest 231 266 4,200 3,050 Climbing Potomac TRACON
Wed 10:33:00 AM 39.1777 -77.1649 337° Northwest  Level Estimated
Wed 10:33:02 AM 38.9667 -77.1667 314° West 277 319 7,700  Level Potomac TRACON
Wed 10:34:00 AM 39.2863 -77.2075 333° Northwest  Level Estimated
Wed 10:35:00 AM 39.3949 -77.2503 339° North  Level Estimated
Wed 10:35:19 AM 39.0564 -77.3772 299° West 315 362 14,400  Level Washington Center
Wed 10:36:00 AM 39.5034 -77.2932 339° North  Level Estimated
Wed 10:36:19 AM 39.1436 -77.4089 344° North 295 339 17,000  Level Washington Center
Wed 10:37:20 AM 39.2331 -77.4111 359° North 308 354 17,700 1,843 Climbing Washington Center
Wed 10:39:05 AM 39.4061 -77.4325 355° North 339 390 22,100 2,400 Climbing New York Center
Wed 10:40:05 AM 39.5036 -77.4417 356° North 349 402 24,300 1,950 Climbing New York Center
Wed 10:41:05 AM 39.6092 -77.4544 355° North 361 415 26,000 850 Climbing New York Center
Wed 10:42:05 AM 39.7217 -77.4569 359° North 376 433 26,000  Level New York Center
Wed 10:43:05 AM 39.8308 -77.4808 350° North 390 449 26,000  Level New York Center
Wed 10:44:05 AM 39.9372 -77.5181 345° North 395 455 26,000  Level New York Center
Wed 10:45:05 AM 40.0536 -77.5619 344° North 395 455 26,000  Level New York Center
Wed 10:46:05 AM 40.1619 -77.5969 346° North 395 455 26,000  Level New York Center
Wed 10:47:05 AM 40.2683 -77.6347 345° North 395 455 26,000  Level New York Center
Wed 10:48:05 AM 40.3764 -77.6781 343° North 395 455 26,000  Level New York Center
Wed 10:49:05 AM 40.4825 -77.7158 345° North 395 455 26,000  Level New York Center
Wed 10:51:10 AM 40.6936 -77.7914 345° North 404 465 26,000  Level Cleveland Center
Wed 10:52:12 AM 40.8006 -77.8325 344° North 404 465 26,000  Level Cleveland Center
Wed 10:53:14 AM 40.9294 -77.8794 345° North 404 465 26,000  Level Cleveland Center
Wed 10:54:16 AM 41.0369 -77.9203 344° North 406 467 26,000  Level Cleveland Center
Wed 10:55:18 AM 41.1444 -77.9617 344° North 407 468 26,000  Level Cleveland Center
Wed 10:56:20 AM 41.2528 -78.0008 345° North 408 470 26,000  Level Cleveland Center
Wed 10:57:22 AM 41.3814 -78.0500 344° North 408 470 26,000  Level Cleveland Center
Wed 10:58:24 AM 41.4900 -78.0892 345° North 408 470 26,000  Level Cleveland Center
Wed 10:59:26 AM 41.5981 -78.1317 344° North 408 470 26,000 -339 Level Cleveland Center
Wed 11:00:28 AM 41.7067 -78.1725 344° North 409 471 25,300 -1,392 Descending Cleveland Center
Wed 11:01:31 AM 41.8147 -78.2150 344° North 408 470 23,100 -2,352 Descending Cleveland Center
Wed 11:02:33 AM 41.9394 -78.2625 344° North 397 457 20,400 -2,419 Descending Cleveland Center
Wed 11:03:35 AM 42.0400 -78.3028 343° North 384 442 18,100 -2,081 Descending Cleveland Center
Wed 11:04:37 AM 42.1378 -78.3408 344° North 370 426 16,100 -2,081 Descending Cleveland Center
Wed 11:05:39 AM 42.2339 -78.3767 345° North 361 415 13,800 -2,226 Descending Cleveland Center
Wed 11:06:41 AM 42.3242 -78.4119 344° North 342 394 11,500 -1,355 Descending Cleveland Center
Wed 11:07:43 AM 42.4325 -78.4544 344° North 339 390 11,000 -339 Descending Cleveland Center
Wed 11:08:45 AM 42.5228 -78.4892 344° North 341 392 10,800 -774 Descending Cleveland Center
Wed 11:09:47 AM 42.6031 -78.5117 348° North 293 337 9,400 -1,694 Descending Cleveland Center
Wed 11:10:49 AM 42.6914 -78.5339 350° North 294 338 7,300 -2,049 Descending Cleveland Center
Wed 11:11:50 AM 42.7756 -78.5500 352° North 294 338 5,200 -1,610 Descending Cleveland Center
Wed 11:12:52 AM 42.8533 -78.5697 349° North 281 323 4,000 -1,065 Descending Cleveland Center
Wed 11:13:54 AM 42.9161 -78.5556 North 228 262 3,000 -629 Descending Cleveland Center
Wed 11:14:56 AM 42.9625 -78.5872 333° Northwest 215 247 2,700 -435 Descending Cleveland Center
Wed 11:15:58 AM 42.9906 -78.6314 311° West 182 209 2,100 -609 Descending Cleveland Center
Wed 11:17:14 AM 42.9667 -78.7000 245° Southwest 118 136 1,300 -632 Descending Buffalo TRACON

Login

Don't have an account? Register now (free) for customized features, flight alerts, and more!